Gosforth, United Kingdom
Current Conditions -  °F | °C
As of 4:20 PM on Friday 21 Nov 2014 (Local Time) from EGNT Reporting Station
Few Clouds Few Clouds  
Wind Chill:   Ceiling: Unl
Heat Index:   Visibility: 4mi
Dew Point:   Wind: 9mph
Humidity: 82%   Direction: 140°SE
Pressure: 29.97"   Gusts: NA
Location:  55°N, 1.62°W
Report Text: EGNT 211620Z 14008KT 090V180 7000 FEW019 09/06 Q1015
Loading
Personal Weather Stations






























Interactive Weather Map New forecast layout! Learn more

10-Day Weather Forecast

Advertisements
Track Severe Weather on mobile